ESOW/VST METAR and TAF weather

Enter ICAO airport designator
Station Type Date Time Source
ESOW METAR 2020/05/30 04:20 UTC NOAA

ESOW 300420Z AUTO 36009KT 9999 OVC057/// 11/05 Q1031


Station Type Date Time Source
ESOW Decoded METAR 2020/05/30 04:20 UTC NOAA

Vasteras / Hasslo, Sweden (ESOW) 59-35N 016-38E 31M
May 30, 2020 - 12:20 AM EDT / 2020.05.30 0420 UTC
Wind: from the N (360 degrees) at 10 MPH (9 KT):0
Visibility: greater than 7 mile(s):0
Sky conditions: overcast
Temperature: 51 F (11 C)
Dew Point: 41 F (5 C)
Relative Humidity: 66%
Pressure (altimeter): 30.45 in. Hg (1031 hPa)
ob: ESOW 300420Z AUTO 36009KT 9999 OVC057/// 11/05 Q1031
cycle: 4

Station Type Date Time Source
ESOW TAF 2018/11/18 12:33 UTC NOAA

TAF ESOW 181130Z 1812/1914 02015KT 9999 BKN020
TEMPO 1812/1814 02015G25KT

Example: see airport list